Time;durP1;ratioP1;P1;durP2;ratioP2;P2;SDS_P1;SDS_P2;PMS_P1;PMS_P2;Temp;Humidity;BMP_temperature;BMP_pressure;BME280_temperature;BME280_humidity;BME280_pressure;Samples;Min_cycle;Max_cycle;Signal;HPM_P1;HPM_P2
2022/07/11 00:02:10;;;;;;;4.18;1.70;;;21.70;91.30;;;;;;5023249;28;20025;-72
2022/07/11 00:04:36;;;;;;;2.13;1.13;;;21.70;91.40;;;;;;5017950;28;20117;-71
2022/07/11 00:07:03;;;;;;;2.20;1.08;;;21.70;91.30;;;;;;5023195;28;20570;-71
2022/07/11 00:09:29;;;;;;;6.68;1.55;;;21.70;91.30;;;;;;5020887;28;20026;-71
2022/07/11 00:11:56;;;;;;;4.90;1.38;;;21.70;91.30;;;;;;5018508;28;20034;-71
2022/07/11 00:14:22;;;;;;;3.08;1.42;;;21.60;91.50;;;;;;5018444;28;20131;-71
2022/07/11 00:16:48;;;;;;;2.75;1.27;;;21.50;91.60;;;;;;5018316;28;20069;-72
2022/07/11 00:19:14;;;;;;;2.22;1.10;;;21.70;91.40;;;;;;5017203;28;20026;-71
2022/07/11 00:21:40;;;;;;;7.20;2.20;;;21.70;91.30;;;;;;5016859;28;20502;-71
2022/07/11 00:24:07;;;;;;;3.70;1.20;;;21.60;91.40;;;;;;5020378;28;20053;-72
2022/07/11 00:26:34;;;;;;;3.03;1.10;;;21.30;91.60;;;;;;5019877;28;20480;-71
2022/07/11 00:28:59;;;;;;;3.17;0.93;;;21.20;91.70;;;;;;5010503;28;20045;-72
2022/07/11 00:31:25;;;;;;;4.20;1.65;;;21.30;91.60;;;;;;5017827;28;20030;-71
2022/07/11 00:33:51;;;;;;;4.93;1.13;;;21.40;91.40;;;;;;5023732;28;20117;-71
2022/07/11 00:36:16;;;;;;;2.83;1.25;;;21.20;91.60;;;;;;5013056;28;20040;-71
2022/07/11 00:38:42;;;;;;;2.78;1.23;;;21.10;91.70;;;;;;5020667;28;20065;-72
2022/07/11 00:41:08;;;;;;;3.63;1.30;;;20.90;91.90;;;;;;5013490;28;20441;-71
2022/07/11 00:43:35;;;;;;;3.50;1.30;;;21.00;91.80;;;;;;5016167;28;20021;-71
2022/07/11 00:46:02;;;;;;;5.10;1.23;;;21.10;91.60;;;;;;5009019;28;20388;-71
2022/07/11 00:48:28;;;;;;;2.88;1.10;;;21.10;91.50;;;;;;4993630;28;20470;-72
2022/07/11 00:50:54;;;;;;;3.08;1.40;;;20.90;91.70;;;;;;5016209;28;20120;-71
2022/07/11 00:53:20;;;;;;;4.22;1.15;;;20.90;91.80;;;;;;5014140;28;20029;-71
2022/07/11 00:55:47;;;;;;;3.05;1.27;;;21.00;91.60;;;;;;5013513;28;20064;-71
2022/07/11 00:58:13;;;;;;;2.70;1.15;;;21.10;91.50;;;;;;5012833;28;20030;-71
2022/07/11 01:00:40;;;;;;;2.45;1.10;;;20.90;91.60;;;;;;5009125;28;20030;-71
2022/07/11 01:03:07;;;;;;;2.78;1.30;;;21.10;91.30;;;;;;5011943;28;20030;-71
2022/07/11 01:05:32;;;;;;;2.17;1.08;;;21.10;91.10;;;;;;5020722;28;20500;-71
2022/07/11 01:07:58;;;;;;;3.47;1.05;;;21.00;91.30;;;;;;5018916;28;20030;-71
2022/07/11 01:10:24;;;;;;;1.70;1.02;;;20.80;91.50;;;;;;5015031;28;20068;-71
2022/07/11 01:12:50;;;;;;;5.38;1.10;;;20.70;91.70;;;;;;5015268;28;20167;-72
2022/07/11 01:15:16;;;;;;;3.92;1.13;;;20.80;91.60;;;;;;5017858;28;20091;-71
2022/07/11 01:17:42;;;;;;;2.08;1.20;;;20.60;91.90;;;;;;5017702;28;20046;-71
2022/07/11 01:20:09;;;;;;;11.77;1.67;;;20.30;92.40;;;;;;5009521;28;20033;-72
2022/07/11 01:22:49;;;;;;;2.95;1.25;;;20.20;92.70;;;;;;5013828;28;20038;-71
2022/07/11 01:25:29;;;;;;;5.03;1.20;;;20.20;92.50;;;;;;5019742;28;20075;-72
2022/07/11 01:28:08;;;;;;;4.35;1.15;;;20.50;92.10;;;;;;5017117;28;20021;-72
2022/07/11 01:30:34;;;;;;;3.08;1.33;;;20.30;92.30;;;;;;5016934;28;20030;-72
2022/07/11 01:33:00;;;;;;;1.80;1.00;;;20.30;92.30;;;;;;5018810;28;20038;-72
2022/07/11 01:35:28;;;;;;;1.80;1.08;;;20.40;92.10;;;;;;5019178;28;20455;-72
2022/07/11 01:37:54;;;;;;;2.55;1.55;;;20.40;92.00;;;;;;5024778;28;20045;-72
2022/07/11 01:40:20;;;;;;;4.28;1.52;;;20.40;92.10;;;;;;5013709;28;20030;-72
2022/07/11 01:42:46;;;;;;;6.10;1.45;;;20.30;92.10;;;;;;5018583;28;20504;-72
2022/07/11 01:45:12;;;;;;;3.00;1.42;;;20.70;91.60;;;;;;5015390;28;20059;-72
2022/07/11 01:47:40;;;;;;;4.30;1.27;;;20.50;91.80;;;;;;5015444;28;20065;-71
2022/07/11 01:50:06;;;;;;;1.77;1.08;;;20.10;92.30;;;;;;5020788;28;20025;-71
2022/07/11 01:52:33;;;;;;;3.60;1.80;;;19.90;92.50;;;;;;5011628;28;20030;-72
2022/07/11 01:54:58;;;;;;;3.30;1.35;;;20.10;92.30;;;;;;5018500;28;20042;-71
2022/07/11 01:57:24;;;;;;;3.85;1.05;;;20.20;92.10;;;;;;5008757;28;20440;-72
2022/07/11 01:59:50;;;;;;;2.38;1.30;;;20.20;92.20;;;;;;5015777;28;20476;-72
2022/07/11 02:02:16;;;;;;;3.90;1.23;;;20.20;92.10;;;;;;5018852;28;20124;-72
2022/07/11 02:04:42;;;;;;;4.05;1.38;;;20.10;92.30;;;;;;5015703;28;20029;-72
2022/07/11 02:07:09;;;;;;;4.53;1.08;;;20.00;92.30;;;;;;5029107;28;20041;-72
2022/07/11 02:09:35;;;;;;;5.88;1.10;;;19.90;92.50;;;;;;5019662;28;20046;-72
2022/07/11 02:12:00;;;;;;;3.58;1.50;;;19.70;92.90;;;;;;5027928;28;20041;-72
2022/07/11 02:14:26;;;;;;;2.78;1.45;;;19.50;93.10;;;;;;5020283;28;20034;-71
2022/07/11 02:16:52;;;;;;;2.28;0.98;;;19.60;93.20;;;;;;5025922;28;20029;-71
2022/07/11 02:19:17;;;;;;;2.15;1.13;;;19.40;93.30;;;;;;5018893;28;20108;-72
2022/07/11 02:21:43;;;;;;;2.33;1.10;;;19.50;93.30;;;;;;5016261;28;20060;-72
2022/07/11 02:24:09;;;;;;;2.25;1.13;;;19.50;93.20;;;;;;5019283;28;20058;-71
2022/07/11 02:26:35;;;;;;;2.03;1.13;;;19.50;93.20;;;;;;5026503;28;20053;-72
2022/07/11 02:29:02;;;;;;;3.83;1.05;;;19.60;93.10;;;;;;5020872;28;20084;-71
2022/07/11 02:31:27;;;;;;;3.25;1.30;;;19.50;93.10;;;;;;5007228;28;20033;-71
2022/07/11 02:33:53;;;;;;;2.53;1.20;;;19.50;93.20;;;;;;5022560;28;20499;-71
2022/07/11 02:36:19;;;;;;;2.28;1.13;;;19.30;93.20;;;;;;5025462;28;20046;-71
2022/07/11 02:38:45;;;;;;;4.03;1.20;;;19.30;93.30;;;;;;5015299;28;20034;-72
2022/07/11 02:41:10;;;;;;;2.97;1.10;;;19.40;93.20;;;;;;5018698;28;20501;-72
2022/07/11 02:43:36;;;;;;;3.38;1.30;;;19.40;93.10;;;;;;5022802;28;20504;-71
2022/07/11 02:46:02;;;;;;;3.20;1.30;;;19.40;93.30;;;;;;5021545;28;20037;-71
2022/07/11 02:48:28;;;;;;;2.42;1.10;;;19.40;93.20;;;;;;5019672;28;20053;-71
2022/07/11 02:50:53;;;;;;;2.55;1.25;;;19.30;93.10;;;;;;5015751;28;20542;-72
2022/07/11 02:53:19;;;;;;;3.42;1.27;;;19.10;93.40;;;;;;5004322;28;20040;-72
2022/07/11 02:55:45;;;;;;;1.75;1.17;;;19.10;93.30;;;;;;5011194;28;20034;-72
2022/07/11 02:58:11;;;;;;;3.30;1.35;;;19.10;93.30;;;;;;5019588;28;20025;-71
2022/07/11 03:00:37;;;;;;;3.28;1.40;;;19.00;93.10;;;;;;5015120;28;20160;-71
2022/07/11 03:03:03;;;;;;;3.60;1.77;;;19.10;93.30;;;;;;5013733;28;20030;-70
2022/07/11 03:05:28;;;;;;;2.78;1.55;;;19.00;93.30;;;;;;5022370;28;20029;-70
2022/07/11 03:07:54;;;;;;;2.47;1.20;;;18.90;93.40;;;;;;5022130;28;20038;-71
2022/07/11 03:10:22;;;;;;;3.40;1.10;;;19.00;93.40;;;;;;5014306;28;20033;-71
2022/07/11 03:12:49;;;;;;;2.33;1.08;;;19.10;93.10;;;;;;5010416;28;20018;-70
2022/07/11 03:15:14;;;;;;;2.38;1.17;;;19.20;92.80;;;;;;5019732;28;20103;-70
2022/07/11 03:17:40;;;;;;;2.40;1.20;;;19.00;92.90;;;;;;5012480;28;20038;-70
2022/07/11 03:20:07;;;;;;;2.03;1.10;;;18.90;92.90;;;;;;5004182;28;20065;-71
2022/07/11 03:22:33;;;;;;;4.03;0.95;;;19.20;92.60;;;;;;5003112;28;20057;-70
2022/07/11 03:25:00;;;;;;;2.40;1.30;;;19.10;92.50;;;;;;5006890;28;20504;-71
2022/07/11 03:27:26;;;;;;;4.30;1.33;;;19.20;92.40;;;;;;5002777;28;20511;-71
2022/07/11 03:29:52;;;;;;;2.83;1.33;;;19.30;92.20;;;;;;5006538;28;20109;-70
2022/07/11 03:32:20;;;;;;;2.28;1.13;;;19.20;92.40;;;;;;5003145;28;20113;-70
2022/07/11 03:35:40;;;;;;;5.30;1.45;;;19.00;92.50;;;;;;5013277;28;20120;-70
2022/07/11 03:37:32;;;;;;;2.15;1.00;;;19.00;92.50;;;;;;5018130;28;20404;-71
2022/07/11 03:39:58;;;;;;;3.92;1.05;;;19.00;92.70;;;;;;4996070;28;20037;-70
2022/07/11 03:42:24;;;;;;;2.65;1.00;;;18.90;92.80;;;;;;5003918;28;20583;-71
2022/07/11 03:44:51;;;;;;;4.38;1.10;;;18.80;92.80;;;;;;5008046;28;20034;-70
2022/07/11 03:47:17;;;;;;;4.50;1.10;;;18.80;92.90;;;;;;5011946;28;20029;-70
2022/07/11 03:49:43;;;;;;;3.00;0.95;;;18.80;92.90;;;;;;5016504;28;20029;-70
2022/07/11 03:52:08;;;;;;;3.80;1.67;;;18.80;93.00;;;;;;5002161;28;20040;-70
2022/07/11 03:54:34;;;;;;;3.50;1.30;;;18.70;93.00;;;;;;5013749;28;20514;-71
2022/07/11 03:57:00;;;;;;;2.53;1.40;;;18.70;93.10;;;;;;5014025;28;20400;-70
2022/07/11 03:59:25;;;;;;;2.58;0.98;;;18.70;93.10;;;;;;5012581;28;20041;-70
2022/07/11 04:01:51;;;;;;;3.83;1.40;;;18.60;93.20;;;;;;5007158;28;20030;-70
2022/07/11 04:04:17;;;;;;;2.67;1.05;;;18.70;93.30;;;;;;5010519;28;20129;-70
2022/07/11 04:06:44;;;;;;;4.43;1.30;;;18.50;93.50;;;;;;5006662;28;20068;-70
2022/07/11 04:09:10;;;;;;;4.13;1.20;;;18.60;93.70;;;;;;5002054;28;20033;-71
2022/07/11 04:11:36;;;;;;;2.55;1.10;;;18.70;93.70;;;;;;5001414;28;20036;-70
2022/07/11 04:14:02;;;;;;;3.78;1.15;;;18.80;93.50;;;;;;5000783;28;20034;-70
2022/07/11 04:16:28;;;;;;;2.20;1.23;;;18.70;93.60;;;;;;4993306;28;20455;-70
2022/07/11 04:18:53;;;;;;;2.83;1.38;;;18.70;93.70;;;;;;5002076;28;20029;-70
2022/07/11 04:21:19;;;;;;;2.28;0.98;;;18.30;94.30;;;;;;5007474;28;20034;-70
2022/07/11 04:23:45;;;;;;;3.75;1.30;;;18.50;94.10;;;;;;5011395;28;20034;-70
2022/07/11 04:26:10;;;;;;;2.70;1.25;;;18.50;94.30;;;;;;5006177;28;20030;-70
2022/07/11 04:28:36;;;;;;;2.67;1.40;;;18.50;94.40;;;;;;5010439;28;20021;-70
2022/07/11 04:31:02;;;;;;;4.07;1.40;;;18.60;94.10;;;;;;5012099;28;20037;-71
2022/07/11 04:33:29;;;;;;;3.33;1.50;;;18.60;94.10;;;;;;5017048;28;20068;-70
2022/07/11 04:35:55;;;;;;;2.88;1.20;;;18.80;93.50;;;;;;5005780;28;20084;-70
2022/07/11 04:38:23;;;;;;;3.97;1.58;;;18.90;93.50;;;;;;5007053;28;20042;-70
2022/07/11 04:40:50;;;;;;;5.03;1.40;;;18.80;93.60;;;;;;5012930;28;20029;-71
2022/07/11 04:43:16;;;;;;;2.70;1.30;;;18.80;93.90;;;;;;5016376;28;20026;-70
2022/07/11 04:45:42;;;;;;;4.32;1.40;;;18.70;94.20;;;;;;5011517;28;20030;-70
2022/07/11 04:48:07;;;;;;;2.53;1.58;;;18.60;94.40;;;;;;5008877;28;20045;-70
2022/07/11 04:50:33;;;;;;;3.08;1.52;;;18.60;94.20;;;;;;5015558;28;20034;-70
2022/07/11 04:52:59;;;;;;;2.75;1.02;;;18.60;94.20;;;;;;5017252;28;20082;-70
2022/07/11 04:55:25;;;;;;;3.42;1.33;;;18.70;94.10;;;;;;5010795;28;20064;-70
2022/07/11 04:57:51;;;;;;;4.35;1.33;;;18.50;94.10;;;;;;5009734;28;20044;-69
2022/07/11 05:00:17;;;;;;;4.07;1.42;;;18.60;94.40;;;;;;5015029;28;20443;-70
2022/07/11 05:02:43;;;;;;;4.47;1.67;;;18.50;94.20;;;;;;5008956;28;20083;-70
2022/07/11 05:05:09;;;;;;;4.00;1.55;;;18.40;94.20;;;;;;5014652;28;20372;-70
2022/07/11 05:07:34;;;;;;;3.72;1.30;;;18.30;94.50;;;;;;5005609;28;20037;-70
2022/07/11 05:10:00;;;;;;;3.20;1.30;;;18.30;94.50;;;;;;5017403;28;20044;-70
2022/07/11 05:12:26;;;;;;;5.53;1.40;;;18.40;94.20;;;;;;5011181;28;20034;-71
2022/07/11 05:14:51;;;;;;;2.47;1.38;;;18.50;94.20;;;;;;5015843;28;20565;-70
2022/07/11 05:17:17;;;;;;;2.67;1.33;;;18.50;93.60;;;;;;4993490;28;20022;-70
2022/07/11 05:19:43;;;;;;;3.08;1.48;;;18.70;93.00;;;;;;5008780;28;20042;-71
2022/07/11 05:22:08;;;;;;;2.17;0.93;;;18.70;92.70;;;;;;5010354;28;20539;-70
2022/07/11 05:24:34;;;;;;;2.17;1.10;;;18.60;93.70;;;;;;5008299;28;20111;-70
2022/07/11 05:27:00;;;;;;;3.30;1.08;;;18.50;94.00;;;;;;5010256;28;20040;-69
2022/07/11 05:29:25;;;;;;;4.07;1.67;;;18.40;94.10;;;;;;5011635;28;20038;-70
2022/07/11 05:31:52;;;;;;;2.70;1.50;;;18.40;94.30;;;;;;5007119;28;20523;-70
2022/07/11 05:34:18;;;;;;;2.60;1.13;;;18.50;94.20;;;;;;5008308;28;20056;-71
2022/07/11 05:36:44;;;;;;;4.53;1.65;;;18.60;93.80;;;;;;4993038;28;20377;-71
2022/07/11 05:39:10;;;;;;;3.10;1.40;;;18.80;94.00;;;;;;5012902;28;20048;-70
2022/07/11 05:41:35;;;;;;;3.13;1.52;;;18.90;93.60;;;;;;5008962;28;20045;-70
2022/07/11 05:44:01;;;;;;;3.10;1.15;;;18.90;93.40;;;;;;5015101;28;20034;-70
2022/07/11 05:46:27;;;;;;;2.80;1.45;;;19.00;94.00;;;;;;5010428;28;20034;-70
2022/07/11 05:48:52;;;;;;;2.70;1.15;;;19.10;94.50;;;;;;5007295;28;20034;-71
2022/07/11 05:51:18;;;;;;;2.95;1.50;;;19.10;93.80;;;;;;5006272;28;20045;-70
2022/07/11 05:53:44;;;;;;;3.90;1.60;;;19.10;93.70;;;;;;5015679;28;20034;-70
2022/07/11 05:56:10;;;;;;;2.50;1.15;;;19.00;94.10;;;;;;5011881;28;20472;-70
2022/07/11 05:58:36;;;;;;;3.53;1.20;;;19.10;94.40;;;;;;5011571;28;20063;-71
2022/07/11 06:01:02;;;;;;;2.97;1.60;;;19.10;94.60;;;;;;5013599;28;20029;-70
2022/07/11 06:03:27;;;;;;;3.50;1.58;;;19.20;94.40;;;;;;5007880;28;20030;-71
2022/07/11 06:05:53;;;;;;;4.90;1.80;;;19.20;93.90;;;;;;5013408;28;20022;-70
2022/07/11 06:11:03;;;;;;;3.63;1.38;;;19.50;93.20;;;;;;5014589;28;20949;-70
2022/07/11 06:13:32;;;;;;;3.95;1.10;;;19.60;93.00;;;;;;5013328;28;20071;-70
2022/07/11 06:15:58;;;;;;;4.10;1.55;;;19.60;93.20;;;;;;5016234;28;20038;-70
2022/07/11 06:18:24;;;;;;;4.07;1.45;;;19.70;93.40;;;;;;5015866;28;20041;-70
2022/07/11 06:20:50;;;;;;;8.73;1.50;;;19.70;92.90;;;;;;5004763;28;20079;-70
2022/07/11 06:23:16;;;;;;;2.67;1.48;;;19.70;93.00;;;;;;5013611;28;20370;-71
2022/07/11 06:25:41;;;;;;;2.85;1.50;;;19.90;92.90;;;;;;5010592;28;20091;-70
2022/07/11 06:28:07;;;;;;;2.63;1.13;;;19.90;92.40;;;;;;5012287;28;20037;-70
2022/07/11 06:30:34;;;;;;;4.25;1.65;;;20.00;92.50;;;;;;5018519;28;20046;-71
2022/07/11 06:33:00;;;;;;;2.85;1.38;;;20.00;92.50;;;;;;5020000;28;20033;-71
2022/07/11 06:35:26;;;;;;;3.10;1.33;;;20.00;92.70;;;;;;5016070;28;20539;-72
2022/07/11 06:37:52;;;;;;;2.75;1.40;;;20.10;92.50;;;;;;5022045;28;20610;-72
2022/07/11 06:40:18;;;;;;;8.52;2.05;;;20.20;92.30;;;;;;5015385;28;20080;-71
2022/07/11 06:42:44;;;;;;;3.63;1.77;;;20.30;92.00;;;;;;5014230;28;20034;-72
2022/07/11 06:45:10;;;;;;;5.32;1.30;;;20.40;91.70;;;;;;5014699;28;20476;-71
2022/07/11 06:47:35;;;;;;;3.05;1.75;;;20.40;91.80;;;;;;5016559;28;20034;-71
2022/07/11 06:50:02;;;;;;;2.47;1.38;;;20.50;91.70;;;;;;5018865;28;20040;-72
2022/07/11 06:52:27;;;;;;;3.40;1.35;;;20.60;91.80;;;;;;5016433;28;20106;-71
2022/07/11 06:54:53;;;;;;;6.25;1.50;;;20.80;91.50;;;;;;5013204;28;20044;-71
2022/07/11 06:57:19;;;;;;;4.35;1.65;;;21.00;91.20;;;;;;5017840;28;20113;-72
2022/07/11 06:59:44;;;;;;;6.57;2.05;;;21.10;90.60;;;;;;5020629;28;20480;-71
2022/07/11 07:02:10;;;;;;;6.10;1.50;;;21.30;90.40;;;;;;5006485;28;20044;-71
2022/07/11 07:04:36;;;;;;;6.93;1.65;;;21.50;89.80;;;;;;5014228;28;20036;-71
2022/07/11 07:07:02;;;;;;;5.22;1.63;;;21.70;90.30;;;;;;5018793;28;20084;-71
2022/07/11 07:09:28;;;;;;;7.00;1.50;;;21.70;88.10;;;;;;5009433;28;20030;-71
2022/07/11 07:11:54;;;;;;;5.32;2.00;;;21.90;88.40;;;;;;5009208;28;20077;-72
2022/07/11 07:14:21;;;;;;;9.40;1.70;;;22.20;88.70;;;;;;5009886;28;20029;-71
2022/07/11 07:16:46;;;;;;;4.00;1.70;;;22.50;88.10;;;;;;5011660;28;20111;-71
2022/07/11 07:19:12;;;;;;;4.30;1.90;;;22.70;86.80;;;;;;5015450;28;20072;-71
2022/07/11 07:21:38;;;;;;;3.13;1.70;;;22.80;86.30;;;;;;5017326;28;20108;-71
2022/07/11 07:24:05;;;;;;;4.38;1.52;;;23.00;86.50;;;;;;5008269;28;20057;-71
2022/07/11 07:26:31;;;;;;;4.22;1.55;;;23.30;86.00;;;;;;5013262;28;20442;-71
2022/07/11 07:28:57;;;;;;;9.43;1.77;;;23.60;86.40;;;;;;5014920;28;20101;-71
2022/07/11 07:31:23;;;;;;;6.85;1.75;;;23.90;85.90;;;;;;5012937;28;20042;-71
2022/07/11 07:33:49;;;;;;;2.88;1.50;;;24.50;84.50;;;;;;5018829;28;20092;-71
2022/07/11 07:36:15;;;;;;;2.47;1.45;;;25.20;83.00;;;;;;5018342;28;20121;-71
2022/07/11 07:38:43;;;;;;;5.38;2.20;;;26.00;82.40;;;;;;5014055;28;20113;-71
2022/07/11 07:41:10;;;;;;;5.15;1.50;;;27.00;79.30;;;;;;5014600;28;20036;-71
2022/07/11 07:43:36;;;;;;;4.03;1.42;;;27.50;77.40;;;;;;5009972;28;20141;-71
2022/07/11 07:46:01;;;;;;;4.72;1.77;;;28.50;76.00;;;;;;5015817;28;20033;-71
2022/07/11 07:48:27;;;;;;;13.38;2.08;;;29.00;75.40;;;;;;5011793;28;20123;-71
2022/07/11 07:50:53;;;;;;;2.55;1.50;;;29.30;74.80;;;;;;5009322;28;20076;-71
2022/07/11 07:53:19;;;;;;;4.20;1.60;;;29.30;75.20;;;;;;5019040;28;20033;-71
2022/07/11 07:55:45;;;;;;;5.43;1.40;;;28.90;74.80;;;;;;5008585;28;20041;-71
2022/07/11 07:58:10;;;;;;;2.33;1.20;;;28.70;75.80;;;;;;5019233;28;20041;-71
2022/07/11 08:03:21;;;;;;;3.20;1.38;;;27.70;76.70;;;;;;5018846;28;20052;-71
2022/07/11 08:05:47;;;;;;;2.50;1.45;;;27.00;77.90;;;;;;5015496;28;20033;-71
2022/07/11 08:08:12;;;;;;;7.22;2.00;;;26.80;78.00;;;;;;5005439;28;20404;-72
2022/07/11 08:10:39;;;;;;;5.05;1.58;;;26.90;77.90;;;;;;5001444;28;20030;-71
2022/07/11 08:13:04;;;;;;;4.20;1.50;;;26.40;78.40;;;;;;5018956;28;20033;-71
2022/07/11 08:15:30;;;;;;;4.20;1.50;;;27.00;78.30;;;;;;5005320;28;20037;-71
2022/07/11 08:17:56;;;;;;;3.42;1.45;;;27.00;77.70;;;;;;5019464;28;20029;-71
2022/07/11 08:20:22;;;;;;;2.53;1.20;;;26.50;79.10;;;;;;5012735;28;20030;-71
2022/07/11 08:22:47;;;;;;;2.65;1.35;;;25.70;78.80;;;;;;5019463;28;20053;-71
2022/07/11 08:25:13;;;;;;;1.98;1.10;;;25.70;79.50;;;;;;5012828;28;20026;-71
2022/07/11 08:27:39;;;;;;;5.72;2.00;;;25.80;82.30;;;;;;5012778;28;20034;-71
2022/07/11 08:30:07;;;;;;;3.03;1.50;;;26.10;80.50;;;;;;5014148;28;20434;-71
2022/07/11 08:32:33;;;;;;;2.95;1.40;;;26.10;79.30;;;;;;5014548;28;20037;-71
2022/07/11 08:34:59;;;;;;;2.75;1.40;;;26.10;79.60;;;;;;5013705;28;20059;-71
2022/07/11 08:37:25;;;;;;;3.33;1.80;;;25.90;78.90;;;;;;5014740;28;20036;-71
2022/07/11 08:39:51;;;;;;;2.75;1.30;;;26.00;78.50;;;;;;5017198;28;20111;-71
2022/07/11 08:42:20;;;;;;;2.33;1.40;;;25.90;80.00;;;;;;5010432;28;20066;-71
2022/07/11 08:44:46;;;;;;;3.53;1.50;;;25.90;79.00;;;;;;5018574;28;20057;-71
2022/07/11 08:47:12;;;;;;;5.00;1.50;;;25.00;80.40;;;;;;5004745;28;20083;-71
2022/07/11 08:49:40;;;;;;;2.28;1.27;;;25.80;80.30;;;;;;5010853;28;20392;-71
2022/07/11 08:52:07;;;;;;;6.82;1.83;;;26.40;78.30;;;;;;5011820;28;20053;-71
2022/07/11 08:54:33;;;;;;;71.65;5.18;;;26.60;78.50;;;;;;5017164;28;20049;-71
2022/07/11 08:57:01;;;;;;;3.13;1.40;;;26.90;78.40;;;;;;5012932;28;20152;-71
2022/07/11 08:59:30;;;;;;;2.92;1.35;;;26.80;77.70;;;;;;5013545;28;20053;-72
2022/07/11 09:02:00;;;;;;;8.00;1.63;;;26.60;78.00;;;;;;5017543;28;20041;-71
2022/07/11 09:04:28;;;;;;;3.25;1.42;;;26.80;79.00;;;;;;5012506;28;20115;-72
2022/07/11 09:06:53;;;;;;;2.78;1.50;;;26.90;77.80;;;;;;5017545;28;20125;-71
2022/07/11 09:09:19;;;;;;;5.05;1.40;;;26.80;78.50;;;;;;5014184;28;20112;-72
2022/07/11 09:11:53;;;;;;;4.28;1.20;;;26.90;76.70;;;;;;5008421;28;20409;-71
2022/07/11 09:14:25;;;;;;;5.70;1.65;;;26.60;77.60;;;;;;5012703;28;20045;-71
2022/07/11 09:16:59;;;;;;;3.38;1.40;;;27.00;76.90;;;;;;5009664;28;20025;-72
2022/07/11 09:19:26;;;;;;;4.10;1.63;;;26.90;77.40;;;;;;5006763;28;20033;-71
2022/07/11 09:27:49;;;;;;;5.43;1.63;;;27.70;77.90;;;;;;5012740;28;20065;-72
2022/07/11 09:30:42;;;;;;;5.10;1.30;;;27.60;76.40;;;;;;5019863;28;20433;-71
2022/07/11 09:33:12;;;;;;;5.40;1.30;;;27.70;77.70;;;;;;5003424;28;20496;-71
2022/07/11 09:35:45;;;;;;;4.05;1.15;;;28.20;77.40;;;;;;5006673;28;20381;-71
2022/07/11 09:38:12;;;;;;;2.00;1.23;;;28.10;77.50;;;;;;5010025;28;20404;-72
2022/07/11 09:40:42;;;;;;;3.85;1.50;;;28.10;76.30;;;;;;5015983;28;20052;-72
2022/07/11 09:43:08;;;;;;;4.75;1.65;;;27.90;76.20;;;;;;5021286;28;20481;-72
2022/07/11 09:45:35;;;;;;;4.78;1.30;;;27.70;76.20;;;;;;5015229;28;20064;-72
2022/07/11 09:48:15;;;;;;;5.28;1.40;;;27.90;77.10;;;;;;5016062;28;20034;-72
2022/07/11 09:50:56;;;;;;;3.28;1.15;;;28.10;76.30;;;;;;5011395;28;20060;-71
2022/07/11 09:53:21;;;;;;;3.92;1.48;;;28.50;76.70;;;;;;5017824;28;20037;-71
2022/07/11 09:55:47;;;;;;;4.00;1.55;;;27.90;75.20;;;;;;5021331;28;20038;-72
2022/07/11 09:58:15;;;;;;;6.25;1.70;;;28.00;76.00;;;;;;5024597;28;20561;-72
2022/07/11 10:00:42;;;;;;;2.97;1.42;;;27.90;76.10;;;;;;5016319;28;20493;-71
2022/07/11 10:03:10;;;;;;;5.88;1.60;;;27.80;76.00;;;;;;5020088;28;20026;-71
2022/07/11 10:05:36;;;;;;;2.90;1.65;;;28.20;76.60;;;;;;5022587;28;20034;-72
2022/07/11 10:08:04;;;;;;;3.70;1.20;;;28.30;75.80;;;;;;5015927;28;20108;-72
2022/07/11 10:10:31;;;;;;;2.47;1.30;;;28.10;76.30;;;;;;5028220;28;20029;-72
2022/07/11 10:12:57;;;;;;;2.20;1.20;;;28.60;76.50;;;;;;5014888;28;20038;-72
2022/07/11 10:15:29;;;;;;;2.70;1.40;;;29.10;76.70;;;;;;5015327;28;20433;-72
2022/07/11 10:18:11;;;;;;;2.03;1.20;;;29.40;76.50;;;;;;5018617;28;20033;-72
2022/07/11 10:20:46;;;;;;;2.08;1.35;;;29.30;74.50;;;;;;5022158;28;20040;-72
2022/07/11 10:23:14;;;;;;;4.53;1.70;;;29.00;75.40;;;;;;5022473;28;20053;-72
2022/07/11 10:25:45;;;;;;;3.45;1.55;;;29.30;75.40;;;;;;5018970;28;20117;-72
2022/07/11 10:28:30;;;;;;;2.80;1.38;;;29.10;74.80;;;;;;5024248;28;20018;-72
2022/07/11 10:30:57;;;;;;;4.95;1.30;;;29.50;75.80;;;;;;5020190;28;20034;-72
2022/07/11 10:33:22;;;;;;;4.97;1.60;;;29.80;75.60;;;;;;5024757;28;20093;-72
2022/07/11 10:35:50;;;;;;;4.45;1.50;;;29.80;75.80;;;;;;5024738;28;20064;-72
2022/07/11 10:38:16;;;;;;;3.03;1.63;;;29.80;74.50;;;;;;5015251;28;20042;-72
2022/07/11 10:40:56;;;;;;;3.25;1.27;;;29.80;74.70;;;;;;5020699;28;20555;-72
2022/07/11 10:43:22;;;;;;;7.07;1.58;;;29.80;74.60;;;;;;5017909;28;20033;-73
2022/07/11 10:45:58;;;;;;;3.58;1.45;;;29.80;74.50;;;;;;5019351;28;20040;-72
2022/07/11 10:48:24;;;;;;;4.30;1.45;;;30.00;73.80;;;;;;5017311;28;20108;-72
2022/07/11 10:51:20;;;;;;;3.22;0.95;;;30.20;75.10;;;;;;5019831;28;20026;-72
2022/07/11 10:53:49;;;;;;;2.03;1.02;;;30.00;73.90;;;;;;5018355;28;20557;-72
2022/07/11 10:56:14;;;;;;;4.78;1.48;;;30.50;74.00;;;;;;5017712;28;20091;-72
2022/07/11 10:58:43;;;;;;;3.78;1.45;;;30.50;73.60;;;;;;5014467;28;20045;-72
2022/07/11 11:01:14;;;;;;;3.28;1.23;;;30.40;73.40;;;;;;5027407;28;20069;-73
2022/07/11 11:03:41;;;;;;;7.32;1.52;;;30.30;73.60;;;;;;5015591;28;20034;-71
2022/07/11 11:06:07;;;;;;;3.00;1.65;;;30.50;74.30;;;;;;5014367;28;20112;-72
2022/07/11 11:08:35;;;;;;;3.47;2.15;;;30.30;73.70;;;;;;5008821;28;20116;-71
2022/07/11 11:11:03;;;;;;;3.25;1.42;;;30.60;73.60;;;;;;5009122;28;20091;-71
2022/07/11 11:13:30;;;;;;;6.30;1.30;;;31.00;73.60;;;;;;5017288;28;20052;-71
2022/07/11 11:15:59;;;;;;;3.58;1.30;;;31.30;73.50;;;;;;5015640;28;20042;-71
2022/07/11 11:18:25;;;;;;;3.08;1.50;;;30.80;72.70;;;;;;5006620;28;20091;-71
2022/07/11 11:21:00;;;;;;;3.95;1.20;;;30.80;72.50;;;;;;5010570;28;20045;-71
2022/07/11 11:23:34;;;;;;;4.72;1.58;;;31.10;72.50;;;;;;5001703;28;20050;-71
2022/07/11 11:26:19;;;;;;;9.07;1.30;;;31.20;71.90;;;;;;5006232;28;20034;-71
2022/07/11 11:29:01;;;;;;;2.88;1.52;;;31.20;73.00;;;;;;5022307;28;20479;-71
2022/07/11 11:31:29;;;;;;;2.87;1.17;;;31.60;70.90;;;;;;5022195;28;20037;-71
2022/07/11 11:33:56;;;;;;;2.47;1.20;;;31.40;72.80;;;;;;5010257;28;20044;-72
2022/07/11 11:36:23;;;;;;;2.50;1.13;;;31.10;72.60;;;;;;5015674;28;20477;-72
2022/07/11 11:38:49;;;;;;;1.92;1.17;;;31.00;72.30;;;;;;5008836;28;20080;-72
2022/07/11 11:41:29;;;;;;;3.10;1.27;;;30.80;72.70;;;;;;5012330;28;20030;-71
2022/07/11 11:43:59;;;;;;;3.05;1.27;;;30.60;72.70;;;;;;5009912;28;20044;-71
2022/07/11 11:46:27;;;;;;;2.90;1.23;;;30.50;73.00;;;;;;5018937;28;20099;-71
2022/07/11 11:49:03;;;;;;;1.27;0.93;;;30.70;73.20;;;;;;5004947;28;20124;-71
2022/07/11 11:51:31;;;;;;;5.45;1.33;;;30.90;73.10;;;;;;5013218;28;20033;-71
2022/07/11 11:54:02;;;;;;;3.30;1.38;;;31.10;73.80;;;;;;5015929;28;20038;-71
2022/07/11 11:56:33;;;;;;;4.15;1.63;;;31.10;73.10;;;;;;5018294;28;20033;-71
2022/07/11 11:59:03;;;;;;;5.18;1.40;;;31.00;74.50;;;;;;5012887;28;20089;-71
2022/07/11 12:01:31;;;;;;;2.67;1.45;;;31.20;74.60;;;;;;5017362;28;20032;-72
2022/07/11 12:04:07;;;;;;;4.72;1.15;;;31.50;73.00;;;;;;5012976;28;20040;-71
2022/07/11 12:06:40;;;;;;;2.58;1.30;;;31.40;73.40;;;;;;5010663;28;20041;-71
2022/07/11 12:09:10;;;;;;;3.25;1.20;;;31.50;73.30;;;;;;5014581;28;20034;-72
2022/07/11 12:11:37;;;;;;;3.85;1.50;;;31.30;73.60;;;;;;5008934;28;20026;-71
2022/07/11 12:14:06;;;;;;;5.18;1.80;;;31.10;73.70;;;;;;5015055;28;20089;-71
2022/07/11 12:16:41;;;;;;;4.50;1.75;;;30.90;74.30;;;;;;5016384;28;20451;-71
2022/07/11 12:19:11;;;;;;;5.97;1.90;;;31.60;73.80;;;;;;5019873;28;20026;-71
2022/07/11 12:21:39;;;;;;;3.58;1.77;;;31.10;74.10;;;;;;5004646;28;20065;-71
2022/07/11 12:24:07;;;;;;;4.03;1.85;;;31.60;74.60;;;;;;5014591;28;20045;-71
2022/07/11 12:26:35;;;;;;;9.07;1.92;;;31.20;73.70;;;;;;5012968;28;20107;-72
2022/07/11 12:29:24;;;;;;;4.65;1.70;;;31.20;74.40;;;;;;5015552;28;20047;-71
2022/07/11 12:32:01;;;;;;;6.43;1.90;;;31.50;73.90;;;;;;5012822;28;20039;-71
2022/07/11 12:34:32;;;;;;;4.32;1.60;;;31.40;74.60;;;;;;5008761;28;20243;-71
2022/07/11 12:37:06;;;;;;;7.82;2.30;;;31.00;74.30;;;;;;5011270;28;20053;-71
2022/07/11 12:39:34;;;;;;;4.25;1.35;;;30.80;74.80;;;;;;5011431;28;20033;-71
2022/07/11 12:42:19;;;;;;;11.73;2.30;;;31.10;74.50;;;;;;5015961;28;20390;-71
2022/07/11 12:45:07;;;;;;;7.28;1.70;;;30.80;74.70;;;;;;5017619;28;20034;-71
2022/07/11 12:47:39;;;;;;;3.90;1.75;;;30.70;74.70;;;;;;5001144;28;20026;-72
2022/07/11 12:50:13;;;;;;;7.68;1.67;;;30.90;74.90;;;;;;5011516;28;20120;-72
2022/07/11 12:52:41;;;;;;;5.05;2.05;;;31.10;74.70;;;;;;5013175;28;20021;-72
2022/07/11 12:55:11;;;;;;;6.38;2.22;;;31.20;74.30;;;;;;5012616;28;20408;-72
2022/07/11 12:57:37;;;;;;;3.33;2.20;;;31.10;75.20;;;;;;5013794;28;20598;-71
2022/07/11 13:00:20;;;;;;;4.30;2.20;;;30.80;74.10;;;;;;5015794;28;20033;-72